Time;durP1;ratioP1;P1;durP2;ratioP2;P2;SDS_P1;SDS_P2;PMS_P1;PMS_P2;Temp;Humidity;BMP_temperature;BMP_pressure;BME280_temperature;BME280_humidity;BME280_pressure;Samples;Min_cycle;Max_cycle;Signal;HPM_P1;HPM_P2
2022/05/07 00:02:04;;;;;;;;;5.75;4.25;;;;;16.96;49.30;101883.41;5003339;28;45725;-82
2022/05/07 00:04:30;;;;;;;;;5.00;5.00;;;;;16.75;49.47;101862.25;5002464;28;46079;-83
2022/05/07 00:06:55;;;;;;;;;4.25;4.25;;;;;16.98;49.57;101893.09;5007721;28;45532;-83
2022/05/07 00:09:21;;;;;;;;;4.75;4.50;;;;;16.79;50.02;101879.97;5004823;28;45551;-82
2022/05/07 00:11:47;;;;;;;;;4.25;4.25;;;;;16.81;49.61;101871.78;5002833;28;45531;-84
2022/05/07 00:14:13;;;;;;;;;4.50;4.00;;;;;16.56;50.68;101862.56;5007325;28;45686;-84
2022/05/07 00:19:22;;;;;;;;;4.25;3.75;;;;;16.56;51.14;101870.63;5003471;28;45766;-85
2022/05/07 00:21:47;;;;;;;;;6.25;4.75;;;;;16.66;51.44;101891.56;5006336;28;46024;-85
2022/05/07 00:24:12;;;;;;;;;8.75;5.00;;;;;16.40;51.60;101854.63;5007578;28;45341;-85
2022/05/07 00:26:38;;;;;;;;;5.00;5.00;;;;;16.38;51.82;101847.63;5011745;28;45600;-83
2022/05/07 00:29:03;;;;;;;;;9.25;6.75;;;;;16.45;52.04;101872.25;4990628;28;45645;-83
2022/05/07 00:31:28;;;;;;;;;8.25;6.25;;;;;16.54;52.43;101891.34;5011386;28;45517;-82
2022/05/07 00:33:54;;;;;;;;;6.75;5.25;;;;;16.33;52.57;101864.03;5008913;28;52176;-84
2022/05/07 00:36:19;;;;;;;;;8.50;7.00;;;;;16.37;53.31;101884.34;5000320;28;45471;-84
2022/05/07 00:38:44;;;;;;;;;6.25;6.25;;;;;16.13;53.81;101857.19;4997292;28;45489;-83
2022/05/07 00:41:10;;;;;;;;;8.50;8.50;;;;;16.17;54.37;101880.22;5012708;28;45508;-83
2022/05/07 00:43:36;;;;;;;;;8.00;8.00;;;;;16.16;54.54;101885.69;5012624;28;45500;-84
2022/05/07 00:46:02;;;;;;;;;8.75;8.50;;;;;16.02;54.61;101865.06;4987111;28;45589;-83
2022/05/07 00:48:28;;;;;;;;;7.75;7.75;;;;;16.05;54.64;101869.38;5008208;28;45468;-84
2022/05/07 00:53:38;;;;;;;;;7.25;6.75;;;;;15.93;54.67;101852.19;5010130;28;45500;-83
2022/05/07 00:56:04;;;;;;;;;7.50;7.50;;;;;15.77;54.88;101818.19;5001074;28;45353;-83
2022/05/07 00:58:30;;;;;;;;;8.75;8.75;;;;;16.16;54.80;101874.94;5007417;28;45277;-82
2022/05/07 01:00:56;;;;;;;;;10.00;9.00;;;;;16.19;54.87;101878.31;5011241;28;45731;-82
2022/05/07 01:03:21;;;;;;;;;8.00;8.00;;;;;16.14;55.08;101866.97;5012902;28;45548;-83
2022/05/07 01:05:50;;;;;;;;;9.00;8.50;;;;;16.11;55.32;101877.91;5013234;28;45903;-84
2022/05/07 01:08:18;;;;;;;;;8.75;7.50;;;;;15.73;55.20;101815.81;5013006;28;45553;-82
2022/05/07 01:10:44;;;;;;;;;8.25;8.25;;;;;15.91;55.75;101871.06;5015769;28;47481;-81
2022/05/07 01:13:09;;;;;;;;;9.00;9.00;;;;;15.89;55.75;101864.91;5012956;28;45674;-82
2022/05/07 01:15:45;;;;;;;;;10.25;9.25;;;;;15.87;55.56;101852.53;5010208;28;45787;-83
2022/05/07 01:18:12;;;;;;;;;11.75;11.75;;;;;15.91;55.95;101868.38;5011382;28;45406;-80
2022/05/07 01:20:38;;;;;;;;;8.50;8.50;;;;;15.81;56.10;101867.22;5010568;28;46030;-81
2022/05/07 01:23:04;;;;;;;;;9.75;9.00;;;;;15.65;56.26;101851.09;5008687;28;45425;-81
2022/05/07 01:25:29;;;;;;;;;10.75;10.25;;;;;15.66;55.89;101843.94;5007432;28;45435;-83
2022/05/07 01:27:55;;;;;;;;;13.50;11.50;;;;;15.45;56.59;101805.81;5012660;28;45489;-83
2022/05/07 01:30:20;;;;;;;;;17.00;12.75;;;;;15.87;56.09;101864.13;5010441;28;47046;-82
2022/05/07 01:32:46;;;;;;;;;9.00;7.75;;;;;15.76;56.68;101862.13;5008972;28;45557;-84
2022/05/07 01:35:12;;;;;;;;;10.00;9.50;;;;;15.69;56.53;101865.22;5010013;28;45681;-82
2022/05/07 01:37:37;;;;;;;;;9.25;9.25;;;;;15.43;57.03;101831.88;5013101;28;45309;-82
2022/05/07 01:40:03;;;;;;;;;11.25;9.00;;;;;15.63;56.85;101861.06;5010626;28;45547;-83
2022/05/07 01:42:28;;;;;;;;;11.50;11.50;;;;;15.48;57.23;101844.06;5014657;28;45279;-82
2022/05/07 01:44:54;;;;;;;;;10.50;10.50;;;;;15.58;56.74;101862.31;5006369;28;45498;-83
2022/05/07 01:50:03;;;;;;;;;11.50;10.00;;;;;15.41;57.46;101852.56;5011014;28;45816;-82
2022/05/07 01:52:29;;;;;;;;;10.50;9.75;;;;;15.29;57.24;101844.28;5010088;28;45450;-82
2022/05/07 01:54:54;;;;;;;;;4.00;3.00;;;;;15.24;57.66;101841.00;5009236;28;45414;-81
2022/05/07 01:57:19;;;;;;;;;11.50;8.75;;;;;15.34;58.16;101858.31;5007567;28;45669;-82
2022/05/07 01:59:45;;;;;;;;;8.50;8.50;;;;;15.26;58.01;101852.50;5010650;28;46130;-81
2022/05/07 02:02:10;;;;;;;;;13.00;11.75;;;;;15.11;57.85;101822.06;5005054;28;45295;-82
2022/05/07 02:04:35;;;;;;;;;14.00;11.75;;;;;15.17;57.48;101820.84;5011996;28;45369;-82
2022/05/07 02:07:00;;;;;;;;;12.00;12.00;;;;;15.17;57.96;101828.03;5010508;28;45453;-81
2022/05/07 02:09:26;;;;;;;;;10.50;10.50;;;;;15.34;57.75;101861.00;5006634;28;45438;-81
2022/05/07 02:11:51;;;;;;;;;10.25;7.25;;;;;15.25;57.65;101840.06;5010308;28;47641;-81
2022/05/07 02:14:17;;;;;;;;;11.75;10.25;;;;;15.35;57.55;101853.81;5010352;28;45599;-82
2022/05/07 02:16:42;;;;;;;;;13.25;11.75;;;;;15.28;57.44;101845.25;5011382;28;45258;-83
2022/05/07 02:19:07;;;;;;;;;10.25;10.00;;;;;15.39;57.35;101857.16;5012745;28;48883;-84
2022/05/07 02:21:32;;;;;;;;;11.00;9.25;;;;;15.38;57.23;101856.28;5012301;28;45579;-83
2022/05/07 02:23:58;;;;;;;;;11.75;10.00;;;;;15.02;57.37;101816.38;5010684;28;45870;-83
2022/05/07 02:26:23;;;;;;;;;9.75;9.25;;;;;15.16;57.17;101827.19;5007707;28;45504;-82
2022/05/07 02:28:49;;;;;;;;;11.00;11.00;;;;;15.10;57.88;101828.41;5009080;28;45376;-82
2022/05/07 02:31:14;;;;;;;;;13.00;13.00;;;;;15.20;58.10;101858.25;5006376;28;45455;-80
2022/05/07 02:33:39;;;;;;;;;11.25;10.25;;;;;15.00;58.43;101837.91;5008765;28;45448;-82
2022/05/07 02:36:05;;;;;;;;;10.75;10.75;;;;;14.84;58.50;101808.44;5009449;28;45439;-82
2022/05/07 02:38:30;;;;;;;;;12.75;12.75;;;;;14.68;58.62;101783.47;5009525;28;45964;-81
2022/05/07 02:43:40;;;;;;;;;13.50;11.25;;;;;14.78;58.75;101815.97;5009860;28;45530;-81
2022/05/07 02:46:05;;;;;;;;;12.50;10.50;;;;;14.72;58.72;101811.81;5007102;28;45498;-81
2022/05/07 02:48:35;;;;;;;;;12.50;10.75;;;;;14.90;59.29;101858.16;5006960;28;45818;-82
2022/05/07 02:51:01;;;;;;;;;13.25;10.00;;;;;14.60;59.56;101815.16;5006796;28;45705;-82
2022/05/07 02:53:26;;;;;;;;;13.00;11.25;;;;;14.73;59.53;101843.03;5008139;28;45451;-82
2022/05/07 02:55:52;;;;;;;;;10.00;10.00;;;;;14.63;59.97;101828.41;5011646;28;45312;-82
2022/05/07 02:58:17;;;;;;;;;12.00;10.75;;;;;14.65;59.77;101851.50;5005204;28;45861;-82
2022/05/07 03:00:42;;;;;;;;;13.50;10.00;;;;;14.49;59.85;101824.63;5012512;28;45357;-82
2022/05/07 03:03:08;;;;;;;;;13.00;11.00;;;;;14.60;59.78;101848.22;4999808;28;45547;-82
2022/05/07 03:05:33;;;;;;;;;11.50;10.75;;;;;14.33;59.85;101806.81;5009474;28;48068;-82
2022/05/07 03:07:59;;;;;;;;;9.75;9.75;;;;;14.40;60.21;101841.22;5009960;28;45458;-82
2022/05/07 03:10:25;;;;;;;;;9.50;9.50;;;;;14.48;60.59;101846.19;5012125;28;45821;-82
2022/05/07 03:12:50;;;;;;;;;14.50;13.00;;;;;14.32;60.57;101827.38;5010172;28;45499;-83
2022/05/07 03:15:16;;;;;;;;;13.75;12.50;;;;;14.38;60.90;101844.94;5005537;28;45548;-83
2022/05/07 03:17:41;;;;;;;;;11.00;10.75;;;;;14.35;60.71;101829.03;5005562;28;46038;-82
2022/05/07 03:20:11;;;;;;;;;11.25;10.25;;;;;14.04;60.93;101769.94;5007929;28;45429;-82
2022/05/07 03:22:37;;;;;;;;;17.00;15.50;;;;;14.11;61.38;101796.41;5006487;28;45406;-82
2022/05/07 03:25:05;;;;;;;;;11.50;11.50;;;;;14.15;61.54;101814.03;5009283;28;45498;-81
2022/05/07 03:27:32;;;;;;;;;12.75;12.75;;;;;14.30;61.59;101837.31;5002980;28;45520;-82
2022/05/07 03:29:57;;;;;;;;;12.00;11.25;;;;;14.25;62.19;101842.06;5008408;28;45591;-82
2022/05/07 03:32:23;;;;;;;;;11.00;10.25;;;;;14.21;62.47;101833.31;5008176;28;45579;-82
2022/05/07 03:34:48;;;;;;;;;15.50;12.75;;;;;13.86;62.23;101773.63;5012528;28;45421;-83
2022/05/07 03:37:15;;;;;;;;;11.75;10.00;;;;;13.77;62.56;101785.69;5011499;28;46102;-82
2022/05/07 03:39:41;;;;;;;;;13.00;13.00;;;;;14.16;62.53;101856.78;5011795;28;45461;-82
2022/05/07 03:42:06;;;;;;;;;15.00;14.75;;;;;14.13;62.90;101848.06;5006899;28;45397;-83
2022/05/07 03:44:31;;;;;;;;;13.75;12.00;;;;;13.91;62.93;101822.44;5009932;28;45330;-83
2022/05/07 03:46:57;;;;;;;;;14.75;11.50;;;;;13.70;63.16;101786.94;5011542;28;45472;-83
2022/05/07 03:49:22;;;;;;;;;15.25;15.00;;;;;13.88;63.39;101824.38;5009497;28;45701;-82
2022/05/07 03:54:31;;;;;;;;;16.00;14.25;;;;;13.78;63.97;101829.34;5006937;28;45270;-84
2022/05/07 03:56:57;;;;;;;;;14.25;14.00;;;;;13.61;63.98;101795.44;4993041;28;46594;-84
2022/05/07 03:59:22;;;;;;;;;12.00;11.50;;;;;13.60;64.09;101805.28;5013779;28;45336;-84
2022/05/07 04:01:47;;;;;;;;;12.75;12.75;;;;;13.41;64.53;101781.28;5014669;28;45349;-84
2022/05/07 04:04:13;;;;;;;;;14.00;14.00;;;;;13.75;64.71;101841.09;5014909;28;45440;-84
2022/05/07 04:06:38;;;;;;;;;13.75;12.00;;;;;13.68;64.28;101828.97;5014618;28;45464;-83
2022/05/07 04:09:03;;;;;;;;;13.25;11.50;;;;;13.90;64.63;101839.41;5014847;28;45679;-83
2022/05/07 04:11:29;;;;;;;;;12.75;10.75;;;;;13.62;65.00;101798.06;5014858;28;46333;-82
2022/05/07 04:13:54;;;;;;;;;12.75;11.25;;;;;13.60;64.88;101791.06;5011059;28;45415;-83
2022/05/07 04:16:20;;;;;;;;;12.00;12.00;;;;;13.48;64.76;101772.97;5014087;28;46097;-83
2022/05/07 04:18:45;;;;;;;;;17.50;13.00;;;;;13.68;65.49;101834.31;5011846;28;45433;-82
2022/05/07 04:21:10;;;;;;;;;16.25;13.50;;;;;13.50;65.59;101801.38;5014052;28;45446;-83
2022/05/07 04:23:36;;;;;;;;;17.00;15.25;;;;;13.65;65.83;101826.47;5014408;28;45369;-82
2022/05/07 04:26:01;;;;;;;;;12.25;12.25;;;;;13.77;65.95;101841.03;5014439;28;45424;-83
2022/05/07 04:28:26;;;;;;;;;13.00;12.25;;;;;13.52;65.80;101802.16;5014598;28;45455;-83
2022/05/07 04:30:52;;;;;;;;;16.25;15.00;;;;;13.47;65.84;101787.28;4995272;28;45505;-83
2022/05/07 04:33:17;;;;;;;;;19.25;14.50;;;;;13.76;65.42;101839.31;5014297;28;45497;-83
2022/05/07 04:35:42;;;;;;;;;16.50;13.50;;;;;13.80;65.67;101825.66;5016176;28;45368;-83
2022/05/07 04:38:08;;;;;;;;;17.75;16.25;;;;;13.48;65.17;101751.56;5018082;28;45481;-84
2022/05/07 04:40:33;;;;;;;;;14.00;12.50;;;;;13.55;66.02;101782.41;5018306;28;45454;-82
2022/05/07 04:42:59;;;;;;;;;15.50;12.50;;;;;13.69;66.25;101833.41;5017617;28;45412;-83
2022/05/07 04:45:25;;;;;;;;;16.00;12.25;;;;;13.59;66.70;101819.63;5017484;28;46118;-84
2022/05/07 04:47:51;;;;;;;;;12.00;11.75;;;;;13.51;66.84;101818.28;4999920;28;45602;-84
2022/05/07 04:50:17;;;;;;;;;19.25;15.50;;;;;13.61;66.84;101841.81;5000089;28;45566;-84
2022/05/07 04:52:42;;;;;;;;;18.50;17.25;;;;;13.49;66.85;101804.13;5018302;28;45468;-84
2022/05/07 04:55:08;;;;;;;;;16.00;15.00;;;;;13.62;67.18;101830.16;5017559;28;46014;-84
2022/05/07 04:57:33;;;;;;;;;16.75;15.50;;;;;13.65;67.14;101834.50;4999598;28;45530;-84
2022/05/07 04:59:59;;;;;;;;;17.00;15.00;;;;;13.70;67.16;101837.78;5017634;28;45985;-84
2022/05/07 05:02:25;;;;;;;;;16.75;16.00;;;;;13.45;66.98;101797.22;4999563;28;45582;-83
2022/05/07 05:04:51;;;;;;;;;17.75;14.50;;;;;13.74;67.01;101847.41;5018043;28;46132;-83
2022/05/07 05:07:16;;;;;;;;;15.25;14.00;;;;;13.63;67.56;101837.22;5017358;28;45423;-83
2022/05/07 05:09:42;;;;;;;;;19.00;17.50;;;;;13.02;67.46;101738.72;5017323;28;45382;-83
2022/05/07 05:12:07;;;;;;;;;15.75;15.75;;;;;13.67;67.37;101831.75;5017320;28;45460;-83
2022/05/07 05:17:16;;;;;;;;;16.50;16.00;;;;;13.77;66.89;101833.00;5017353;28;45366;-84
2022/05/07 05:19:42;;;;;;;;;15.50;15.50;;;;;13.54;67.18;101805.63;5017287;28;45499;-83
2022/05/07 05:22:07;;;;;;;;;19.75;17.25;;;;;13.58;67.55;101825.06;4999192;28;45602;-82
2022/05/07 05:24:33;;;;;;;;;16.75;16.00;;;;;13.56;67.72;101834.97;5017019;28;45553;-83
2022/05/07 05:26:58;;;;;;;;;17.50;16.00;;;;;13.59;67.86;101824.97;5017215;28;45465;-83
2022/05/07 05:29:23;;;;;;;;;18.00;15.50;;;;;13.59;67.71;101819.63;5017229;28;45503;-83
2022/05/07 05:31:49;;;;;;;;;21.50;18.50;;;;;13.32;68.13;101797.81;5017595;28;45325;-83
2022/05/07 05:34:14;;;;;;;;;23.00;17.75;;;;;13.61;67.77;101835.59;5016773;28;45469;-83
2022/05/07 05:36:39;;;;;;;;;16.50;15.00;;;;;13.39;67.76;101790.34;5016870;28;45480;-83
2022/05/07 05:39:07;;;;;;;;;19.00;17.50;;;;;13.69;67.81;101824.50;4998783;28;45486;-83
2022/05/07 05:41:33;;;;;;;;;15.50;15.50;;;;;13.66;68.22;101828.19;5016869;28;45485;-83
2022/05/07 05:43:59;;;;;;;;;18.25;17.75;;;;;13.66;67.91;101830.84;4999271;28;47558;-83
2022/05/07 05:46:25;;;;;;;;;15.00;13.50;;;;;13.55;68.03;101810.03;5015777;28;45508;-83
2022/05/07 05:48:50;;;;;;;;;18.50;18.50;;;;;13.77;68.16;101839.22;5016820;28;45614;-83
2022/05/07 05:51:15;;;;;;;;;19.50;19.50;;;;;13.69;68.16;101828.06;5016588;28;45531;-82
2022/05/07 05:53:41;;;;;;;;;22.00;17.50;;;;;13.68;68.04;101823.63;5016574;28;45336;-83
2022/05/07 05:56:06;;;;;;;;;16.00;16.00;;;;;13.62;68.31;101814.13;4999000;28;45462;-83
2022/05/07 05:58:35;;;;;;;;;18.25;17.50;;;;;13.79;67.72;101836.47;5017054;28;45480;-82
2022/05/07 06:01:02;;;;;;;;;21.50;15.25;;;;;13.48;67.48;101784.53;5015900;28;45526;-82
2022/05/07 06:03:28;;;;;;;;;23.00;20.00;;;;;13.90;67.88;101846.59;5016393;28;46006;-82
2022/05/07 06:05:54;;;;;;;;;20.75;19.75;;;;;13.96;67.66;101843.59;5016558;28;46255;-83
2022/05/07 06:08:19;;;;;;;;;17.25;15.25;;;;;13.99;67.38;101836.25;5016605;28;45451;-83
2022/05/07 06:10:44;;;;;;;;;19.50;17.50;;;;;13.67;67.27;101795.16;5017053;28;45483;-83
2022/05/07 06:13:10;;;;;;;;;17.50;16.50;;;;;13.97;67.65;101848.00;5016139;28;46235;-83
2022/05/07 06:15:37;;;;;;;;;20.00;18.00;;;;;13.96;67.80;101844.47;5015917;28;45468;-83
2022/05/07 06:18:03;;;;;;;;;20.50;17.25;;;;;14.04;67.83;101834.22;5016064;28;45348;-82
2022/05/07 06:20:28;;;;;;;;;21.50;19.25;;;;;14.13;67.25;101837.38;5015761;28;45356;-83
2022/05/07 06:22:58;;;;;;;;;19.25;19.25;;;;;14.24;67.01;101834.97;5016233;28;46629;-82
2022/05/07 06:28:08;;;;;;;;;18.75;16.00;;;;;14.30;66.93;101839.13;5013291;28;45473;-83
2022/05/07 06:30:35;;;;;;;;;19.25;18.25;;;;;13.99;66.53;101772.00;5015265;28;45526;-83
2022/05/07 06:33:00;;;;;;;;;20.00;19.25;;;;;13.78;66.29;101760.66;4992448;28;47408;-82
2022/05/07 06:35:26;;;;;;;;;20.75;18.00;;;;;14.13;66.78;101822.16;4998219;28;45508;-82
2022/05/07 06:37:51;;;;;;;;;20.75;19.50;;;;;14.06;66.88;101823.44;5016660;28;45464;-83
2022/05/07 06:40:17;;;;;;;;;20.50;18.00;;;;;14.28;67.01;101839.19;5014152;28;45492;-83
2022/05/07 06:42:44;;;;;;;;;30.75;23.75;;;;;14.05;66.93;101808.31;5015648;28;45383;-83
2022/05/07 06:45:11;;;;;;;;;26.50;21.25;;;;;14.24;67.32;101856.41;5015436;28;45302;-82
2022/05/07 06:47:36;;;;;;;;;21.00;19.50;;;;;13.82;67.18;101805.03;5015005;28;45564;-83
2022/05/07 06:50:02;;;;;;;;;18.50;18.50;;;;;14.26;67.07;101857.16;5015980;28;45398;-83
2022/05/07 06:52:28;;;;;;;;;19.00;17.75;;;;;14.12;66.93;101822.22;5015025;28;45365;-82
2022/05/07 06:54:54;;;;;;;;;25.25;24.00;;;;;14.41;66.73;101872.44;5015240;28;45432;-83
2022/05/07 06:57:19;;;;;;;;;22.00;21.00;;;;;14.25;67.24;101884.91;5015473;28;45492;-82
2022/05/07 06:59:45;;;;;;;;;23.00;21.00;;;;;13.78;67.89;101829.34;5015347;28;45773;-83
2022/05/07 07:02:10;;;;;;;;;26.25;20.75;;;;;14.07;68.22;101892.97;5015351;28;45828;-83
2022/05/07 07:04:35;;;;;;;;;21.50;20.00;;;;;14.15;68.50;101897.91;5015965;28;45534;-83
2022/05/07 07:07:01;;;;;;;;;23.75;23.50;;;;;13.93;67.81;101858.03;5015042;28;45464;-83
2022/05/07 07:09:26;;;;;;;;;25.25;19.75;;;;;14.27;67.86;101894.59;5014385;28;45416;-83
2022/05/07 07:11:51;;;;;;;;;21.75;19.50;;;;;14.31;67.47;101898.00;5014573;28;45943;-83
2022/05/07 07:14:17;;;;;;;;;22.25;20.00;;;;;13.96;67.74;101846.28;5014904;28;45476;-83
2022/05/07 07:16:42;;;;;;;;;24.75;21.75;;;;;13.97;68.00;101848.00;5014557;28;45492;-83
2022/05/07 07:19:09;;;;;;;;;25.50;24.00;;;;;13.84;68.19;101829.91;5014390;28;45526;-83
2022/05/07 07:21:34;;;;;;;;;23.00;20.25;;;;;14.24;68.39;101880.50;5013244;28;45218;-83
2022/05/07 07:24:00;;;;;;;;;20.75;20.75;;;;;13.57;68.10;101761.81;5014362;28;45468;-83
2022/05/07 07:26:25;;;;;;;;;31.25;26.50;;;;;14.22;67.66;101845.75;5013640;28;45389;-83
2022/05/07 07:28:50;;;;;;;;;23.00;20.25;;;;;14.23;67.33;101873.41;5014373;28;45476;-81
2022/05/07 07:31:16;;;;;;;;;20.75;20.00;;;;;13.83;67.48;101800.56;5013917;28;45428;-83
2022/05/07 07:33:42;;;;;;;;;22.50;20.00;;;;;13.96;67.43;101816.84;4996429;28;45385;-83
2022/05/07 07:36:09;;;;;;;;;23.25;22.50;;;;;14.21;68.07;101867.25;5011619;28;45466;-83
2022/05/07 07:38:35;;;;;;;;;20.75;20.00;;;;;14.44;67.93;101898.19;4996628;28;45584;-84
2022/05/07 07:41:02;;;;;;;;;22.00;21.25;;;;;14.61;67.65;101897.31;5014578;28;45443;-84
2022/05/07 07:43:28;;;;;;;;;22.00;19.75;;;;;14.17;66.95;101802.31;5012825;28;45435;-83
2022/05/07 07:48:39;;;;;;;;;20.50;19.00;;;;;14.75;67.14;101894.75;5012818;28;45527;-83
2022/05/07 07:51:04;;;;;;;;;20.25;18.50;;;;;14.59;66.79;101856.31;5011135;28;46363;-83
2022/05/07 07:53:29;;;;;;;;;16.75;16.00;;;;;14.68;66.71;101870.09;5013967;28;45224;-83
2022/05/07 07:55:55;;;;;;;;;21.50;21.50;;;;;14.82;66.62;101893.44;5012416;28;45364;-84
2022/05/07 07:58:20;;;;;;;;;19.75;17.75;;;;;15.04;66.15;101906.53;5013982;28;45392;-82
2022/05/07 08:00:46;;;;;;;;;24.75;20.00;;;;;14.32;65.88;101789.03;5011513;28;46536;-82
2022/05/07 08:03:13;;;;;;;;;20.50;17.50;;;;;14.43;66.16;101814.28;5011020;28;45710;-82
2022/05/07 08:05:40;;;;;;;;;20.25;18.00;;;;;14.93;65.99;101887.47;5011383;28;45472;-83
2022/05/07 08:13:36;;;;;;;;;19.75;16.25;;;;;15.05;66.29;101884.09;5008018;28;45554;-83
2022/05/07 08:16:03;;;;;;;;;21.25;17.50;;;;;14.88;65.56;101844.81;5010868;28;45522;-84
2022/05/07 08:18:29;;;;;;;;;18.75;16.00;;;;;14.13;65.78;101720.41;5010888;28;45459;-82
2022/05/07 08:20:55;;;;;;;;;19.00;19.00;;;;;14.86;65.07;101800.28;5008960;28;45871;-81
2022/05/07 08:23:22;;;;;;;;;18.75;16.50;;;;;15.48;65.06;101891.50;5012938;28;45246;-82
2022/05/07 08:25:48;;;;;;;;;16.50;16.50;;;;;15.45;64.98;101865.72;5014326;28;46080;-82
2022/05/07 08:28:13;;;;;;;;;17.25;16.00;;;;;15.38;64.67;101871.53;4993841;28;45556;-82
2022/05/07 08:30:39;;;;;;;;;22.25;19.25;;;;;14.86;64.86;101790.47;5009302;28;45396;-81
2022/05/07 08:33:05;;;;;;;;;20.25;19.25;;;;;15.30;64.59;101872.84;5007866;28;45453;-82
2022/05/07 08:35:31;;;;;;;;;16.25;12.75;;;;;15.55;64.42;101884.81;5013797;28;45377;-82
2022/05/07 08:37:56;;;;;;;;;19.00;17.25;;;;;15.56;64.48;101867.75;5014524;28;45558;-82
2022/05/07 08:40:22;;;;;;;;;18.50;17.00;;;;;15.39;64.22;101824.97;5012981;28;45644;-82
2022/05/07 08:42:48;;;;;;;;;16.50;16.50;;;;;15.86;64.19;101886.59;5013362;28;45452;-82
2022/05/07 08:45:14;;;;;;;;;16.50;15.25;;;;;15.83;64.00;101859.06;5013621;28;45502;-82
2022/05/07 08:47:41;;;;;;;;;9.75;9.75;;;;;15.86;63.77;101845.44;4995891;28;45560;-86
2022/05/07 08:50:08;;;;;;;;;15.25;14.25;;;;;16.10;63.57;101878.88;4995508;28;48139;-86
2022/05/07 08:53:03;;;;;;;;;15.00;13.50;;;;;16.25;63.44;101870.81;5014423;28;45552;-87
2022/05/07 08:55:31;;;;;;;;;14.00;13.00;;;;;16.24;62.74;101853.00;5014779;28;45421;-88
2022/05/07 08:57:58;;;;;;;;;15.50;14.75;;;;;16.53;62.19;101878.03;5012603;28;45434;-87
2022/05/07 09:00:25;;;;;;;;;12.00;11.75;;;;;16.68;62.15;101884.25;5008774;28;46218;-86
2022/05/07 09:02:56;;;;;;;;;12.75;12.00;;;;;16.68;61.90;101849.31;5012152;28;45680;-86
2022/05/07 09:05:32;;;;;;;;;13.00;12.25;;;;;16.99;61.62;101870.59;5012523;28;45552;-86
2022/05/07 09:07:58;;;;;;;;;15.50;13.25;;;;;17.13;60.93;101876.91;5011659;28;45456;-86
2022/05/07 09:10:28;;;;;;;;;18.00;14.00;;;;;17.24;60.81;101877.06;5012183;28;45936;-86
2022/05/07 09:13:15;;;;;;;;;15.00;12.00;;;;;17.10;60.39;101845.69;5009607;28;45497;-86
2022/05/07 09:15:55;;;;;;;;;13.75;11.00;;;;;17.00;59.89;101841.88;5008687;28;45633;-87
2022/05/07 09:18:22;;;;;;;;;19.25;18.25;;;;;16.93;60.25;101840.53;5011941;28;45633;-86
2022/05/07 09:23:56;;;;;;;;;17.75;14.25;;;;;17.29;60.13;101879.44;5013202;28;45663;-86
2022/05/07 09:26:32;;;;;;;;;10.50;10.00;;;;;17.16;59.55;101877.56;5014896;28;45377;-86
2022/05/07 09:29:00;;;;;;;;;12.25;12.25;;;;;16.98;60.55;101866.19;5011351;28;45453;-86
2022/05/07 09:31:27;;;;;;;;;20.50;15.75;;;;;16.80;60.96;101829.72;5013146;28;46195;-86
2022/05/07 09:35:47;;;;;;;;;15.50;12.00;;;;;17.19;60.69;101871.13;5013623;28;45506;-86
2022/05/07 09:36:42;;;;;;;;;18.25;14.50;;;;;17.16;60.43;101853.34;5013762;28;45468;-86
2022/05/07 09:39:10;;;;;;;;;11.00;11.00;;;;;17.30;60.19;101868.59;5016286;28;45408;-86
2022/05/07 09:41:35;;;;;;;;;18.25;14.75;;;;;17.15;60.48;101826.53;5015937;28;46651;-85
2022/05/07 09:44:01;;;;;;;;;12.25;11.25;;;;;17.45;60.29;101839.78;5016325;28;45292;-85
2022/05/07 09:46:30;;;;;;;;;12.75;11.25;;;;;17.73;59.94;101857.63;5016438;28;45353;-86
2022/05/07 09:48:58;;;;;;;;;19.00;17.00;;;;;17.86;59.54;101849.56;5015978;28;45399;-86
2022/05/07 09:51:24;;;;;;;;;12.25;12.00;;;;;18.00;59.12;101864.78;5016113;28;47023;-86
2022/05/07 09:59:18;;;;;;;;;14.75;14.75;;;;;18.18;58.23;101858.09;5015796;28;45417;-86
2022/05/07 10:02:02;;;;;;;;;19.25;18.25;;;;;18.04;58.05;101858.22;5016344;28;46130;-86
2022/05/07 10:05:06;;;;;;;;;14.75;14.75;;;;;18.15;58.48;101857.47;5015683;28;45479;-85
2022/05/07 10:08:00;;;;;;;;;12.75;10.75;;;;;18.28;58.63;101859.19;4990061;28;45341;-86
2022/05/07 10:10:29;;;;;;;;;20.25;13.75;;;;;18.36;58.73;101855.09;4997374;28;45447;-86
2022/05/07 10:12:57;;;;;;;;;18.00;13.00;;;;;18.53;58.13;101865.53;4997557;28;47460;-86
2022/05/07 10:15:24;;;;;;;;;15.50;13.75;;;;;18.47;57.64;101837.19;5015121;28;45561;-86
2022/05/07 10:18:07;;;;;;;;;35.25;25.50;;;;;18.62;57.69;101855.94;5004039;28;45526;-86
2022/05/07 10:20:39;;;;;;;;;18.25;17.25;;;;;18.60;57.17;101849.78;4990941;28;45342;-85
2022/05/07 10:23:07;;;;;;;;;17.75;16.50;;;;;18.70;57.73;101843.59;4992762;28;47236;-85
2022/05/07 10:25:32;;;;;;;;;16.00;15.00;;;;;18.81;57.27;101823.97;5013450;28;45418;-85
2022/05/07 10:28:08;;;;;;;;;17.25;14.50;;;;;18.81;57.09;101790.69;5011872;28;45535;-85
2022/05/07 10:30:48;;;;;;;;;18.50;14.75;;;;;19.40;56.72;101852.00;5010704;28;45594;-85
2022/05/07 10:33:13;;;;;;;;;18.00;13.75;;;;;19.46;55.17;101836.19;5009082;28;47474;-86
2022/05/07 10:35:55;;;;;;;;;18.50;17.00;;;;;19.58;54.52;101856.88;5013655;28;45353;-86
2022/05/07 10:38:22;;;;;;;;;17.25;13.25;;;;;19.65;54.74;101851.84;5013770;28;45623;-85
2022/05/07 10:40:52;;;;;;;;;15.50;13.75;;;;;19.56;54.10;101821.00;5014820;28;45432;-86
2022/05/07 10:43:31;;;;;;;;;15.25;12.25;;;;;19.82;54.71;101853.28;5012001;28;46009;-85
2022/05/07 10:46:01;;;;;;;;;10.00;7.75;;;;;19.89;53.33;101849.13;5011330;28;45610;-86
2022/05/07 10:48:26;;;;;;;;;16.50;16.00;;;;;19.65;53.58;101823.97;5010727;28;45453;-85
2022/05/07 10:50:53;;;;;;;;;12.75;12.75;;;;;19.91;53.74;101846.28;5014104;28;45504;-86
2022/05/07 10:53:19;;;;;;;;;17.25;13.75;;;;;19.67;54.18;101809.34;5013288;28;45969;-85
2022/05/07 10:55:45;;;;;;;;;16.50;15.00;;;;;19.85;53.65;101833.28;5013498;28;45484;-86
2022/05/07 10:58:10;;;;;;;;;15.75;14.75;;;;;19.90;52.92;101848.13;5009051;28;45548;-85
2022/05/07 11:00:36;;;;;;;;;16.50;14.75;;;;;19.64;53.33;101809.59;5007595;28;45467;-85
2022/05/07 11:03:02;;;;;;;;;21.25;18.00;;;;;19.57;53.65;101814.59;5014599;28;45486;-86
2022/05/07 11:05:33;;;;;;;;;19.50;18.00;;;;;19.52;53.94;101816.81;4999293;28;45378;-86
2022/05/07 11:07:59;;;;;;;;;14.75;14.75;;;;;19.51;53.95;101822.34;5014184;28;45413;-85
2022/05/07 11:10:25;;;;;;;;;13.75;13.25;;;;;19.62;53.95;101841.25;5014269;28;45537;-85
2022/05/07 11:12:51;;;;;;;;;20.00;14.00;;;;;19.32;53.98;101779.69;5014686;28;45667;-85
2022/05/07 11:15:24;;;;;;;;;14.75;11.50;;;;;19.47;53.69;101827.09;5014820;28;45827;-85
2022/05/07 11:17:50;;;;;;;;;14.50;12.75;;;;;19.54;54.42;101832.91;5015056;28;45475;-85
2022/05/07 11:20:16;;;;;;;;;16.50;14.00;;;;;19.33;54.30;101801.16;4998189;28;45649;-85
2022/05/07 11:22:42;;;;;;;;;17.00;14.75;;;;;19.48;54.39;101828.84;5012125;28;46129;-85
2022/05/07 11:25:08;;;;;;;;;20.50;15.00;;;;;19.28;54.14;101819.53;5011286;28;45511;-85
2022/05/07 11:27:34;;;;;;;;;11.50;11.25;;;;;19.33;55.05;101830.00;5012861;28;45547;-85
2022/05/07 11:30:01;;;;;;;;;14.00;11.50;;;;;19.44;55.12;101830.03;4994130;28;45672;-85
2022/05/07 11:32:40;;;;;;;;;14.75;14.75;;;;;19.64;54.89;101822.25;5014593;28;45404;-85
2022/05/07 11:35:06;;;;;;;;;20.75;18.75;;;;;19.71;53.89;101824.38;4997815;28;45442;-85
2022/05/07 11:37:58;;;;;;;;;20.00;17.00;;;;;19.66;54.02;101829.25;5012255;28;45679;-86
2022/05/07 11:40:28;;;;;;;;;16.50;14.75;;;;;19.68;54.09;101823.78;5006879;28;45454;-81
2022/05/07 11:45:39;;;;;;;;;16.25;14.25;;;;;19.68;55.33;101823.78;4928064;28;45453;-76
2022/05/07 11:48:15;;;;;;;;;15.00;14.50;;;;;19.70;55.21;101825.38;4931927;28;45487;-80
2022/05/07 11:50:59;;;;;;;;;15.25;11.75;;;;;19.71;54.65;101824.38;4927506;28;47401;-79